Gootcha — 29440QE — position and weather

sailwx.info

Track history (hours):
 
Tides and Currents Weather Stations Pressure Air Temp Water Temp Dewpoint Dewpoint Depression Visibility Wind Speed Wind Dir Waves Ship Positions

Gootcha

Last reported at 2017-Nov-20 00:17 UTC. Time now 2017-Nov-21 02:28 UTC.
Position S 27°27' E 153°06'.

Length 24 m.

Type: Passenger vessel. MMSI: 503576900.

Date/timePositionNaut miles runAvg speedWind from/ knotsBaromVisibWave heightAir tempDewpointWater temp
2017-Nov-20 00:17S 27°27' E 153°06'0 0.0
2017-Nov-19 23:58S 27°27' E 153°06'0 0.0
2017-Nov-19 23:16S 27°27' E 153°06'0 0.1
2017-Nov-19 19:56S 27°27' E 153°06'0 0.5
2017-Nov-19 19:31S 27°27' E 153°06'0 0.0
2017-Nov-19 19:00S 27°27' E 153°06'0 0.0
2017-Nov-19 18:31S 27°27' E 153°06'0 0.0
2017-Nov-19 18:01S 27°27' E 153°06'0 0.0
2017-Nov-19 17:31S 27°27' E 153°06'0 0.0
2017-Nov-19 17:01S 27°27' E 153°06'0 0.0
2017-Nov-19 16:31S 27°27' E 153°06'0 0.0
2017-Nov-19 16:01S 27°27' E 153°06'0 0.0
2017-Nov-19 15:31S 27°27' E 153°06'0 0.0
2017-Nov-19 15:01S 27°27' E 153°06'0 0.0
2017-Nov-19 14:31S 27°27' E 153°06'0 0.0
2017-Nov-19 14:01S 27°27' E 153°06'0 0.0
2017-Nov-19 13:31S 27°27' E 153°06'0 0.0
2017-Nov-19 13:01S 27°27' E 153°06'0 0.0
2017-Nov-19 12:31S 27°27' E 153°06'0 0.0
2017-Nov-19 12:01S 27°27' E 153°06'0 0.0
2017-Nov-19 11:31S 27°27' E 153°06'0 0.0
2017-Nov-19 11:01S 27°27' E 153°06'0 0.0
2017-Nov-19 10:31S 27°27' E 153°06'0 0.0
2017-Nov-19 10:01S 27°27' E 153°06'0 0.0
2017-Nov-19 09:31S 27°27' E 153°06'0 0.0
2017-Nov-19 09:01S 27°27' E 153°06'0 0.0
2017-Nov-19 08:31S 27°27' E 153°06'0 0.0
2017-Nov-19 08:01S 27°27' E 153°06'0 0.0
2017-Nov-19 07:30S 27°27' E 153°06'0 0.0
2017-Nov-19 07:01S 27°27' E 153°06'2 0.1
2017-Nov-18 06:48S 27°26' E 153°04'2 5.2
2017-Nov-18 06:20S 27°29' E 153°03'4 0.6
2017-Nov-17 23:40S 27°27' E 153°06'0 0.0
2017-Nov-17 23:30S 27°27' E 153°06'0 0.0
2017-Nov-17 22:56S 27°27' E 153°06'0 0.0
2017-Nov-17 22:29S 27°27' E 153°06'0 0.0
2017-Nov-17 22:00S 27°27' E 153°06'0 0.0
2017-Nov-17 21:28S 27°27' E 153°06'0 0.0
2017-Nov-17 21:00S 27°27' E 153°06'0 0.0
2017-Nov-17 20:30S 27°27' E 153°06'0 0.0
2017-Nov-17 20:00S 27°27' E 153°06'0 0.0
2017-Nov-17 19:30S 27°27' E 153°06'0 0.0
2017-Nov-17 19:00S 27°27' E 153°06'0 0.0
2017-Nov-17 18:30S 27°27' E 153°06'0 0.0
2017-Nov-17 18:00S 27°27' E 153°06'0 0.0
2017-Nov-17 17:30S 27°27' E 153°06'0 0.0
2017-Nov-17 17:00S 27°27' E 153°06'0 0.0
2017-Nov-17 16:30S 27°27' E 153°06'0 0.0
2017-Nov-17 16:00S 27°27' E 153°06'0 0.0
2017-Nov-17 15:30S 27°27' E 153°06'0 0.0
2017-Nov-17 15:00S 27°27' E 153°06'0 0.0
2017-Nov-17 14:30S 27°27' E 153°06'0 0.0
2017-Nov-17 14:00S 27°27' E 153°06'0 0.0
2017-Nov-17 13:30S 27°27' E 153°06'0 0.0
2017-Nov-17 13:00S 27°27' E 153°06'0 0.0
2017-Nov-17 12:30S 27°27' E 153°06'0 0.0
2017-Nov-17 12:00S 27°27' E 153°06'0 0.0
2017-Nov-17 11:30S 27°27' E 153°06'0 0.0
2017-Nov-17 11:00S 27°27' E 153°06'0 0.0
2017-Nov-17 10:30S 27°27' E 153°06'0 0.0
2017-Nov-17 10:00S 27°27' E 153°06'0 0.0
2017-Nov-17 09:30S 27°27' E 153°06'0 0.0
2017-Nov-17 09:00S 27°27' E 153°06'4 4.3
2017-Nov-17 08:06S 27°28' E 153°02'4 0.3
2017-Nov-16 19:31S 27°27' E 153°06'0 0.0
2017-Nov-16 19:23S 27°27' E 153°06'0 0.0
2017-Nov-16 19:00S 27°27' E 153°06'0 0.0
2017-Nov-16 18:31S 27°27' E 153°06'0 0.0
2017-Nov-16 18:00S 27°27' E 153°06'0 0.0
2017-Nov-16 17:31S 27°27' E 153°06'0 0.0
2017-Nov-16 17:01S 27°27' E 153°06'0 0.0
2017-Nov-16 16:30S 27°27' E 153°06'0 0.0
2017-Nov-16 16:00S 27°27' E 153°06'0 0.0
2017-Nov-16 15:30S 27°27' E 153°06'0 0.0
2017-Nov-16 15:00S 27°27' E 153°06'0 0.0
2017-Nov-16 14:31S 27°27' E 153°06'0 0.0
2017-Nov-16 14:01S 27°27' E 153°06'0 0.0
2017-Nov-16 13:31S 27°27' E 153°06'0 0.0
2017-Nov-16 13:01S 27°27' E 153°06'0 0.0
2017-Nov-16 12:31S 27°27' E 153°06'0 0.0
2017-Nov-16 12:01S 27°27' E 153°06'0 0.0
2017-Nov-16 11:30S 27°27' E 153°06'0 0.0
2017-Nov-16 11:00S 27°27' E 153°06'0 0.0
2017-Nov-16 10:31S 27°27' E 153°06'0 0.0
2017-Nov-16 10:01S 27°27' E 153°06'0 0.0
2017-Nov-16 09:30S 27°27' E 153°06'0 0.0
2017-Nov-16 09:00S 27°27' E 153°06'0 0.0
2017-Nov-16 06:38S 27°27' E 153°06'  
Track history (hours):
 
Tides and Currents Weather Stations Pressure Air Temp Water Temp Dewpoint Dewpoint Depression Visibility Wind Speed Wind Dir Waves Ship Positions

Gootcha

Last reported at 2017-Nov-20 00:17 UTC. Time now 2017-Nov-21 02:28 UTC.
Position S 27°27' E 153°06'.

Length 24 m.

Type: Passenger vessel. MMSI: 503576900.

Date/timePositionNaut miles runAvg speedWind from/ knotsBaromVisibWave heightAir tempDewpointWater temp
2017-Nov-20 00:17S 27°27' E 153°06'0 0.0
2017-Nov-19 23:58S 27°27' E 153°06'0 0.0
2017-Nov-19 23:16S 27°27' E 153°06'0 0.1
2017-Nov-19 19:56S 27°27' E 153°06'0 0.5
2017-Nov-19 19:31S 27°27' E 153°06'0 0.0
2017-Nov-19 19:00S 27°27' E 153°06'0 0.0
2017-Nov-19 18:31S 27°27' E 153°06'0 0.0
2017-Nov-19 18:01S 27°27' E 153°06'0 0.0
2017-Nov-19 17:31S 27°27' E 153°06'0 0.0
2017-Nov-19 17:01S 27°27' E 153°06'0 0.0
2017-Nov-19 16:31S 27°27' E 153°06'0 0.0
2017-Nov-19 16:01S 27°27' E 153°06'0 0.0
2017-Nov-19 15:31S 27°27' E 153°06'0 0.0
2017-Nov-19 15:01S 27°27' E 153°06'0 0.0
2017-Nov-19 14:31S 27°27' E 153°06'0 0.0
2017-Nov-19 14:01S 27°27' E 153°06'0 0.0
2017-Nov-19 13:31S 27°27' E 153°06'0 0.0
2017-Nov-19 13:01S 27°27' E 153°06'0 0.0
2017-Nov-19 12:31S 27°27' E 153°06'0 0.0
2017-Nov-19 12:01S 27°27' E 153°06'0 0.0
2017-Nov-19 11:31S 27°27' E 153°06'0 0.0
2017-Nov-19 11:01S 27°27' E 153°06'0 0.0
2017-Nov-19 10:31S 27°27' E 153°06'0 0.0
2017-Nov-19 10:01S 27°27' E 153°06'0 0.0
2017-Nov-19 09:31S 27°27' E 153°06'0 0.0
2017-Nov-19 09:01S 27°27' E 153°06'0 0.0
2017-Nov-19 08:31S 27°27' E 153°06'0 0.0
2017-Nov-19 08:01S 27°27' E 153°06'0 0.0
2017-Nov-19 07:30S 27°27' E 153°06'0 0.0
2017-Nov-19 07:01S 27°27' E 153°06'2 0.1
2017-Nov-18 06:48S 27°26' E 153°04'2 5.2
2017-Nov-18 06:20S 27°29' E 153°03'4 0.6
2017-Nov-17 23:40S 27°27' E 153°06'0 0.0
2017-Nov-17 23:30S 27°27' E 153°06'0 0.0
2017-Nov-17 22:56S 27°27' E 153°06'0 0.0
2017-Nov-17 22:29S 27°27' E 153°06'0 0.0
2017-Nov-17 22:00S 27°27' E 153°06'0 0.0
2017-Nov-17 21:28S 27°27' E 153°06'0 0.0
2017-Nov-17 21:00S 27°27' E 153°06'0 0.0
2017-Nov-17 20:30S 27°27' E 153°06'0 0.0
2017-Nov-17 20:00S 27°27' E 153°06'0 0.0
2017-Nov-17 19:30S 27°27' E 153°06'0 0.0
2017-Nov-17 19:00S 27°27' E 153°06'0 0.0
2017-Nov-17 18:30S 27°27' E 153°06'0 0.0
2017-Nov-17 18:00S 27°27' E 153°06'0 0.0
2017-Nov-17 17:30S 27°27' E 153°06'0 0.0
2017-Nov-17 17:00S 27°27' E 153°06'0 0.0
2017-Nov-17 16:30S 27°27' E 153°06'0 0.0
2017-Nov-17 16:00S 27°27' E 153°06'0 0.0
2017-Nov-17 15:30S 27°27' E 153°06'0 0.0
2017-Nov-17 15:00S 27°27' E 153°06'0 0.0
2017-Nov-17 14:30S 27°27' E 153°06'0 0.0
2017-Nov-17 14:00S 27°27' E 153°06'0 0.0
2017-Nov-17 13:30S 27°27' E 153°06'0 0.0
2017-Nov-17 13:00S 27°27' E 153°06'0 0.0
2017-Nov-17 12:30S 27°27' E 153°06'0 0.0
2017-Nov-17 12:00S 27°27' E 153°06'0 0.0
2017-Nov-17 11:30S 27°27' E 153°06'0 0.0
2017-Nov-17 11:00S 27°27' E 153°06'0 0.0
2017-Nov-17 10:30S 27°27' E 153°06'0 0.0
2017-Nov-17 10:00S 27°27' E 153°06'0 0.0
2017-Nov-17 09:30S 27°27' E 153°06'0 0.0
2017-Nov-17 09:00S 27°27' E 153°06'4 4.3
2017-Nov-17 08:06S 27°28' E 153°02'4 0.3
2017-Nov-16 19:31S 27°27' E 153°06'0 0.0
2017-Nov-16 19:23S 27°27' E 153°06'0 0.0
2017-Nov-16 19:00S 27°27' E 153°06'0 0.0
2017-Nov-16 18:31S 27°27' E 153°06'0 0.0
2017-Nov-16 18:00S 27°27' E 153°06'0 0.0
2017-Nov-16 17:31S 27°27' E 153°06'0 0.0
2017-Nov-16 17:01S 27°27' E 153°06'0 0.0
2017-Nov-16 16:30S 27°27' E 153°06'0 0.0
2017-Nov-16 16:00S 27°27' E 153°06'0 0.0
2017-Nov-16 15:30S 27°27' E 153°06'0 0.0
2017-Nov-16 15:00S 27°27' E 153°06'0 0.0
2017-Nov-16 14:31S 27°27' E 153°06'0 0.0
2017-Nov-16 14:01S 27°27' E 153°06'0 0.0
2017-Nov-16 13:31S 27°27' E 153°06'0 0.0
2017-Nov-16 13:01S 27°27' E 153°06'0 0.0
2017-Nov-16 12:31S 27°27' E 153°06'0 0.0
2017-Nov-16 12:01S 27°27' E 153°06'0 0.0
2017-Nov-16 11:30S 27°27' E 153°06'0 0.0
2017-Nov-16 11:00S 27°27' E 153°06'0 0.0
2017-Nov-16 10:31S 27°27' E 153°06'0 0.0
2017-Nov-16 10:01S 27°27' E 153°06'0 0.0
2017-Nov-16 09:30S 27°27' E 153°06'0 0.0
2017-Nov-16 09:00S 27°27' E 153°06'0 0.0
2017-Nov-16 06:38S 27°27' E 153°06'  

Dump ship's entire track history